createdAt,value
2023-03-06T00:01:38.936Z,0.87
2023-03-06T00:04:08.078Z,0.87
2023-03-06T00:06:34.633Z,0.82
2023-03-06T00:09:01.202Z,0.81
2023-03-06T00:11:27.671Z,0.82
2023-03-06T00:13:54.173Z,0.81
2023-03-06T00:16:20.652Z,0.81
2023-03-06T00:18:47.758Z,0.80
2023-03-06T00:21:14.157Z,0.78
2023-03-06T00:23:41.278Z,0.77
2023-03-06T00:26:08.546Z,0.75
2023-03-06T00:28:36.420Z,0.74
2023-03-06T00:31:04.045Z,0.73
2023-03-06T00:33:30.718Z,0.70
2023-03-06T00:35:57.388Z,0.68
2023-03-06T00:38:25.324Z,0.64
2023-03-06T00:40:51.719Z,0.65
2023-03-06T00:43:18.117Z,0.66
2023-03-06T00:45:44.605Z,0.65
2023-03-06T00:48:11.120Z,0.66
2023-03-06T00:50:37.659Z,0.63
2023-03-06T00:53:04.179Z,0.60
2023-03-06T00:55:31.107Z,0.60
2023-03-06T00:57:57.588Z,0.59
2023-03-06T01:00:24.182Z,0.60
2023-03-06T01:02:50.816Z,0.62
2023-03-06T01:05:17.266Z,0.61
2023-03-06T01:07:43.862Z,0.60
2023-03-06T01:10:11.245Z,0.63
2023-03-06T01:12:37.686Z,0.65
2023-03-06T01:15:05.785Z,0.65
2023-03-06T01:17:32.277Z,0.66
2023-03-06T01:19:58.830Z,0.69
2023-03-06T01:22:25.308Z,0.67
2023-03-06T01:24:52.732Z,0.68
2023-03-06T01:27:21.096Z,0.68
2023-03-06T01:29:47.553Z,0.68
2023-03-06T01:32:14.072Z,0.67
2023-03-06T01:34:41.346Z,0.68
2023-03-06T01:37:07.827Z,0.68
2023-03-06T01:39:34.284Z,0.68
2023-03-06T01:42:00.851Z,0.67
2023-03-06T01:44:27.339Z,0.66
2023-03-06T01:46:53.753Z,0.62
2023-03-06T01:49:25.666Z,0.58
2023-03-06T01:52:12.159Z,0.56
2023-03-06T01:54:46.439Z,0.54
2023-03-06T01:57:16.838Z,0.52
2023-03-06T01:59:46.743Z,0.52
2023-03-06T02:02:15.359Z,0.50
2023-03-06T02:04:44.025Z,0.48
2023-03-06T02:07:11.558Z,0.47
2023-03-06T02:09:38.589Z,0.44
2023-03-06T02:12:11.555Z,0.39
2023-03-06T02:14:39.106Z,0.37
2023-03-06T02:17:05.752Z,0.37
2023-03-06T02:19:54.634Z,0.33
2023-03-06T02:22:22.862Z,0.29
2023-03-06T02:25:03.316Z,0.29
2023-03-06T02:27:30.078Z,0.28
2023-03-06T02:29:56.590Z,0.27
2023-03-06T02:32:23.145Z,0.27
2023-03-06T02:34:53.796Z,0.25
2023-03-06T02:37:21.425Z,0.23
2023-03-06T02:39:53.127Z,0.25
2023-03-06T02:42:26.174Z,0.26
2023-03-06T02:44:55.587Z,0.25
2023-03-06T02:47:22.199Z,0.25
2023-03-06T02:49:49.077Z,0.25
2023-03-06T02:52:15.471Z,0.27
2023-03-06T02:54:42.510Z,0.29
2023-03-06T02:57:09.401Z,0.32
2023-03-06T02:59:35.869Z,0.36
2023-03-06T03:02:04.504Z,0.40
2023-03-06T03:04:31.610Z,0.42
2023-03-06T03:06:58.110Z,0.44
2023-03-06T03:09:25.190Z,0.46
2023-03-06T03:11:51.709Z,0.50
2023-03-06T03:14:19.116Z,0.51
2023-03-06T03:16:46.707Z,0.55
2023-03-06T03:19:13.222Z,0.58
2023-03-06T03:21:40.613Z,0.62
2023-03-06T03:24:07.838Z,0.62
2023-03-06T03:26:34.452Z,0.64
2023-03-06T03:29:06.562Z,0.67
2023-03-06T03:31:33.094Z,0.68
2023-03-06T03:34:01.096Z,0.73
2023-03-06T03:36:29.547Z,0.74
2023-03-06T03:38:57.599Z,0.78
2023-03-06T03:41:24.171Z,0.80
2023-03-06T03:43:51.473Z,0.84
2023-03-06T03:46:18.323Z,0.87
2023-03-06T03:48:45.811Z,0.89
2023-03-06T03:51:13.951Z,0.92
2023-03-06T03:53:45.167Z,0.95
2023-03-06T03:56:14.022Z,0.97
2023-03-06T03:58:49.621Z,1.01
2023-03-06T04:01:16.133Z,1.03
2023-03-06T04:03:42.638Z,1.05
2023-03-06T04:06:10.418Z,1.08
2023-03-06T04:08:37.366Z,1.12
2023-03-06T04:11:03.892Z,1.15
2023-03-06T04:13:31.523Z,1.19
2023-03-06T04:15:59.595Z,1.23
2023-03-06T04:18:27.282Z,1.26
2023-03-06T04:20:57.476Z,1.28
2023-03-06T04:23:24.345Z,1.31
2023-03-06T04:25:51.426Z,1.34
2023-03-06T04:28:18.298Z,1.35
2023-03-06T04:30:44.869Z,1.36
2023-03-06T04:33:11.562Z,1.37
2023-03-06T04:35:38.293Z,1.38
2023-03-06T04:38:10.028Z,1.39
2023-03-06T04:40:37.030Z,1.41
2023-03-06T04:43:04.552Z,1.41
2023-03-06T04:45:32.248Z,1.42
2023-03-06T04:47:59.048Z,1.42
2023-03-06T04:50:28.331Z,1.45
2023-03-06T04:52:54.803Z,1.46
2023-03-06T04:55:21.243Z,1.48
2023-03-06T04:57:48.274Z,1.49
2023-03-06T05:00:18.230Z,1.52
2023-03-06T05:02:45.486Z,1.53
2023-03-06T05:05:12.811Z,1.56
2023-03-06T05:07:39.636Z,1.57
2023-03-06T05:10:07.454Z,1.61
2023-03-06T05:12:37.487Z,1.64
2023-03-06T05:15:04.779Z,1.67
2023-03-06T05:17:31.192Z,1.69
2023-03-06T05:19:57.661Z,1.69
2023-03-06T05:22:24.090Z,1.70
2023-03-06T05:24:50.595Z,1.72
2023-03-06T05:27:17.059Z,1.75
2023-03-06T05:29:43.478Z,1.76
2023-03-06T05:32:10.011Z,1.77
2023-03-06T05:34:36.638Z,1.80
2023-03-06T05:37:03.083Z,1.82
2023-03-06T05:39:30.213Z,1.84
2023-03-06T05:41:56.608Z,1.85
2023-03-06T05:44:23.879Z,1.88
2023-03-06T05:46:50.817Z,1.87
2023-03-06T05:49:17.347Z,1.88
2023-03-06T05:51:43.880Z,1.88
2023-03-06T05:54:10.354Z,1.87
2023-03-06T05:56:36.757Z,1.85
2023-03-06T05:59:03.159Z,1.85
2023-03-06T06:01:30.215Z,1.79
2023-03-06T06:03:56.751Z,1.76
2023-03-06T06:06:23.272Z,1.74
2023-03-06T06:08:49.739Z,1.73
2023-03-06T06:11:18.230Z,1.72
2023-03-06T06:13:44.695Z,1.71
2023-03-06T06:16:18.945Z,1.72
2023-03-06T06:18:45.750Z,1.71
2023-03-06T06:21:14.312Z,1.73
2023-03-06T06:23:41.067Z,1.76
2023-03-06T06:26:09.198Z,1.78
2023-03-06T06:28:35.727Z,1.82
2023-03-06T06:31:08.332Z,1.87
2023-03-06T06:33:34.941Z,1.89
2023-03-06T06:36:01.433Z,1.92
2023-03-06T06:38:27.927Z,1.96
2023-03-06T06:41:30.635Z,1.99
2023-03-06T06:43:40.829Z,2.04
2023-03-06T06:46:36.463Z,2.08
2023-03-06T06:48:56.773Z,2.15
2023-03-06T06:51:23.237Z,2.19
2023-03-06T06:53:52.754Z,2.24
2023-03-06T06:56:19.152Z,2.30
2023-03-06T06:58:45.549Z,2.34
2023-03-06T07:01:13.616Z,2.37
2023-03-06T07:03:40.790Z,2.38
2023-03-06T07:06:07.765Z,2.42
2023-03-06T07:08:34.520Z,2.46
2023-03-06T07:11:07.008Z,2.49
2023-03-06T07:13:33.629Z,2.53
2023-03-06T07:16:00.130Z,2.58
2023-03-06T07:18:26.652Z,2.60
2023-03-06T07:20:54.141Z,2.65
2023-03-06T07:23:20.753Z,2.72
2023-03-06T07:25:47.259Z,2.80
2023-03-06T07:28:13.753Z,2.94
2023-03-06T07:30:41.408Z,3.07
2023-03-06T07:33:08.363Z,3.58
2023-03-06T07:35:34.846Z,4.31
2023-03-06T07:38:01.354Z,4.92
2023-03-06T07:40:28.275Z,5.27
2023-03-06T07:43:06.096Z,5.59
2023-03-06T07:45:42.576Z,6.09
2023-03-06T07:48:09.534Z,6.65
2023-03-06T07:50:36.013Z,7.16
2023-03-06T07:53:02.467Z,7.88
2023-03-06T07:55:28.864Z,8.43
2023-03-06T07:57:55.327Z,9.03
2023-03-06T08:00:22.127Z,8.72
2023-03-06T08:02:49.585Z,9.71
2023-03-06T08:05:17.021Z,10.30
2023-03-06T08:07:45.001Z,10.72
2023-03-06T08:10:14.310Z,10.17
2023-03-06T08:12:40.907Z,9.89
2023-03-06T08:15:09.977Z,8.65
2023-03-06T08:17:36.630Z,9.03
2023-03-06T08:20:03.704Z,8.32
2023-03-06T08:22:30.196Z,8.00
2023-03-06T08:24:58.019Z,6.77
2023-03-06T08:27:24.503Z,6.74
2023-03-06T08:29:50.927Z,6.98
2023-03-06T08:32:17.446Z,6.83
2023-03-06T08:34:45.500Z,6.44
2023-03-06T08:37:12.020Z,5.98
2023-03-06T08:39:38.499Z,5.88
2023-03-06T08:42:04.993Z,6.13
2023-03-06T08:44:31.649Z,6.73
2023-03-06T08:46:58.091Z,7.64
2023-03-06T08:49:24.521Z,8.02
2023-03-06T08:51:50.936Z,8.24
2023-03-06T08:54:17.409Z,9.14
2023-03-06T08:56:43.824Z,9.57
2023-03-06T08:59:10.942Z,8.73
2023-03-06T09:01:38.676Z,8.91
2023-03-06T09:04:08.099Z,9.67
2023-03-06T09:06:37.774Z,9.42
2023-03-06T09:09:05.198Z,8.25
2023-03-06T09:11:32.270Z,8.00
2023-03-06T09:13:58.933Z,9.11
2023-03-06T09:16:25.609Z,8.64
2023-03-06T09:18:53.829Z,9.87
2023-03-06T09:21:22.076Z,10.08
2023-03-06T09:23:48.548Z,9.35
2023-03-06T09:26:15.241Z,9.00
2023-03-06T09:28:42.038Z,8.80
2023-03-06T09:31:17.064Z,8.76
2023-03-06T09:33:44.268Z,8.62
2023-03-06T09:36:19.324Z,8.81
2023-03-06T09:38:47.789Z,8.88
2023-03-06T09:41:26.319Z,9.15
2023-03-06T09:44:01.430Z,9.30
2023-03-06T09:46:39.871Z,8.68
2023-03-06T09:49:25.409Z,8.35
2023-03-06T09:52:16.532Z,8.03
2023-03-06T09:54:46.137Z,7.47
2023-03-06T09:57:23.893Z,7.66
2023-03-06T09:59:55.512Z,7.79
2023-03-06T10:02:34.064Z,8.11
2023-03-06T10:05:04.059Z,8.41
2023-03-06T10:07:45.075Z,8.47
2023-03-06T10:10:18.949Z,8.51
2023-03-06T10:12:53.452Z,8.49
2023-03-06T10:15:27.491Z,8.62
2023-03-06T10:17:54.509Z,8.56
2023-03-06T10:20:48.251Z,8.74
2023-03-06T10:23:35.742Z,8.62
2023-03-06T10:26:03.400Z,8.76
2023-03-06T10:28:42.340Z,8.89
2023-03-06T10:31:23.066Z,8.65
2023-03-06T10:34:07.374Z,8.01
2023-03-06T10:36:33.839Z,7.77
2023-03-06T10:39:04.478Z,7.64
2023-03-06T10:41:32.710Z,7.93
2023-03-06T10:44:05.160Z,8.25
2023-03-06T10:46:43.771Z,8.39
2023-03-06T10:49:34.691Z,8.34
2023-03-06T10:52:18.637Z,8.41
2023-03-06T10:54:45.547Z,8.57
2023-03-06T10:57:17.864Z,8.84
2023-03-06T10:59:53.137Z,9.02
2023-03-06T11:02:24.962Z,9.03
2023-03-06T11:04:54.459Z,8.98
2023-03-06T11:07:29.883Z,9.01
2023-03-06T11:09:59.161Z,8.91
2023-03-06T11:12:37.556Z,8.38
2023-03-06T11:15:07.372Z,8.51
2023-03-06T11:17:48.045Z,8.48
2023-03-06T11:20:14.430Z,8.23
2023-03-06T11:22:42.974Z,8.48
2023-03-06T11:25:14.019Z,8.65
2023-03-06T11:27:44.003Z,8.70
2023-03-06T11:30:22.978Z,8.59
2023-03-06T11:32:56.490Z,8.25
2023-03-06T11:35:39.372Z,8.22
2023-03-06T11:38:22.379Z,8.17
2023-03-06T11:40:55.947Z,8.09
2023-03-06T11:43:29.627Z,8.13
2023-03-06T11:46:07.136Z,8.25
2023-03-06T11:48:39.131Z,8.53
2023-03-06T11:51:15.147Z,8.39
2023-03-06T11:53:41.999Z,8.27
2023-03-06T11:56:31.811Z,8.15
2023-03-06T11:58:58.261Z,8.07
2023-03-06T12:01:35.154Z,8.09
2023-03-06T12:04:25.745Z,8.28
2023-03-06T12:07:11.645Z,8.11
2023-03-06T12:10:33.434Z,8.16
2023-03-06T12:13:11.630Z,8.08
2023-03-06T12:15:55.038Z,7.90
2023-03-06T12:18:50.469Z,7.79
2023-03-06T12:21:28.785Z,7.92
2023-03-06T12:24:03.513Z,8.01
2023-03-06T12:26:45.786Z,8.02
2023-03-06T12:29:21.102Z,8.03
2023-03-06T12:31:56.800Z,7.96
2023-03-06T12:34:25.952Z,7.81
2023-03-06T12:36:58.129Z,7.70
2023-03-06T12:39:52.373Z,7.43
2023-03-06T12:42:40.687Z,7.62
2023-03-06T12:45:25.917Z,7.81
2023-03-06T12:47:55.803Z,7.85
2023-03-06T12:50:31.419Z,7.82
2023-03-06T12:53:03.055Z,7.74
2023-03-06T12:55:39.523Z,7.51
2023-03-06T12:58:30.822Z,7.26
2023-03-06T13:01:03.627Z,7.28
2023-03-06T13:03:39.210Z,7.37
2023-03-06T13:06:14.748Z,7.33
2023-03-06T13:09:15.818Z,7.24
2023-03-06T13:11:45.260Z,7.44
2023-03-06T13:14:25.751Z,7.63
2023-03-06T13:16:52.393Z,7.75
2023-03-06T13:19:23.025Z,7.88
2023-03-06T13:21:55.559Z,7.93
2023-03-06T13:24:24.582Z,7.80
2023-03-06T13:26:56.912Z,7.69
2023-03-06T13:29:35.627Z,7.52
2023-03-06T13:32:02.005Z,7.57
2023-03-06T13:34:31.517Z,7.67
2023-03-06T13:37:16.798Z,7.75
2023-03-06T13:39:52.566Z,7.75
2023-03-06T13:42:59.514Z,7.72
2023-03-06T13:45:29.067Z,7.73
2023-03-06T13:50:47.075Z,7.50
2023-03-06T13:53:38.409Z,7.37
2023-03-06T13:56:47.852Z,7.30
2023-03-06T13:59:32.824Z,7.26
2023-03-06T14:02:29.756Z,7.20
2023-03-06T14:04:58.565Z,7.14
2023-03-06T14:07:34.530Z,7.10
2023-03-06T14:10:20.305Z,7.07
2023-03-06T14:12:49.487Z,6.94
2023-03-06T14:15:28.153Z,6.94
2023-03-06T14:18:02.762Z,6.88
2023-03-06T14:20:55.468Z,6.82
2023-03-06T14:23:23.490Z,6.79
2023-03-06T14:26:22.844Z,6.75
2023-03-06T14:28:52.127Z,6.77
2023-03-06T14:31:21.434Z,6.71
2023-03-06T14:33:57.093Z,6.56
2023-03-06T14:36:31.637Z,6.35
2023-03-06T14:39:07.285Z,6.26
2023-03-06T14:41:35.469Z,6.32
2023-03-06T14:44:12.034Z,6.34
2023-03-06T14:46:38.568Z,6.43
2023-03-06T14:49:08.323Z,6.50
2023-03-06T14:51:43.608Z,6.49
2023-03-06T14:54:19.789Z,6.45
2023-03-06T14:56:50.167Z,6.39
2023-03-06T14:59:21.602Z,6.25
2023-03-06T15:01:51.386Z,6.17
2023-03-06T15:04:30.723Z,6.02
2023-03-06T15:06:58.450Z,5.96
2023-03-06T15:09:33.995Z,5.97
2023-03-06T15:12:02.129Z,6.00
2023-03-06T15:14:36.992Z,6.08
2023-03-06T15:17:18.521Z,6.12
2023-03-06T15:19:50.789Z,6.10
2023-03-06T15:22:37.759Z,6.04
2023-03-06T15:25:21.683Z,6.07
2023-03-06T15:28:00.615Z,6.08
2023-03-06T15:30:35.051Z,6.19
2023-03-06T15:33:19.781Z,6.24
2023-03-06T15:35:54.864Z,6.16
2023-03-06T15:38:35.437Z,6.15
2023-03-06T15:41:05.189Z,6.14
2023-03-06T15:43:36.582Z,6.06
2023-03-06T15:46:04.761Z,5.91
2023-03-06T15:48:31.542Z,5.81
2023-03-06T15:50:58.083Z,5.72
2023-03-06T15:53:24.566Z,5.68
2023-03-06T15:55:52.065Z,5.62
2023-03-06T15:58:26.799Z,5.59
2023-03-06T16:00:53.457Z,5.54
2023-03-06T16:03:20.135Z,5.46
2023-03-06T16:05:46.722Z,5.33
2023-03-06T16:08:14.863Z,5.22
2023-03-06T16:10:43.972Z,5.11
2023-03-06T16:13:16.106Z,5.05
2023-03-06T16:15:50.509Z,4.94
2023-03-06T16:18:17.615Z,4.87
2023-03-06T16:20:44.442Z,4.70
2023-03-06T16:23:10.991Z,4.53
2023-03-06T16:25:40.462Z,4.41
2023-03-06T16:28:12.426Z,4.35
2023-03-06T16:30:38.902Z,4.26
2023-03-06T16:33:05.511Z,4.17
2023-03-06T16:35:31.990Z,4.09
2023-03-06T16:38:00.043Z,3.99
2023-03-06T16:40:37.336Z,3.90
2023-03-06T16:43:05.372Z,3.83
2023-03-06T16:45:36.358Z,3.78
2023-03-06T16:48:03.061Z,3.75
2023-03-06T16:50:40.467Z,3.69
2023-03-06T16:53:07.750Z,3.61
2023-03-06T16:55:34.165Z,3.55
2023-03-06T16:58:00.626Z,3.52
2023-03-06T17:00:32.933Z,3.48
2023-03-06T17:03:01.300Z,3.47
2023-03-06T17:05:28.748Z,3.43
2023-03-06T17:07:55.658Z,3.42
2023-03-06T17:10:26.109Z,3.43
2023-03-06T17:12:53.555Z,3.40
2023-03-06T17:15:20.238Z,3.39
2023-03-06T17:17:47.025Z,3.38
2023-03-06T17:20:13.653Z,3.36
2023-03-06T17:22:41.444Z,3.35
2023-03-06T17:25:08.937Z,3.35
2023-03-06T17:27:35.575Z,3.34
2023-03-06T17:30:02.679Z,3.32
2023-03-06T17:32:29.184Z,3.32
2023-03-06T17:34:56.590Z,3.32
2023-03-06T17:37:23.232Z,3.32
2023-03-06T17:39:49.785Z,3.34
2023-03-06T17:42:16.382Z,3.33
2023-03-06T17:44:43.082Z,3.35
2023-03-06T17:47:09.583Z,3.34
2023-03-06T17:49:36.047Z,3.35
2023-03-06T17:52:05.677Z,3.37
2023-03-06T17:54:33.151Z,3.37
2023-03-06T17:57:03.172Z,3.40
2023-03-06T17:59:30.990Z,3.41
2023-03-06T18:01:58.552Z,3.43
2023-03-06T18:04:25.775Z,3.45
2023-03-06T18:06:52.529Z,3.49
2023-03-06T18:09:19.200Z,3.51
2023-03-06T18:11:45.688Z,3.52
2023-03-06T18:14:12.167Z,3.54
2023-03-06T18:16:38.825Z,3.52
2023-03-06T18:19:05.283Z,3.51
2023-03-06T18:21:31.834Z,3.49
2023-03-06T18:23:58.370Z,3.46
2023-03-06T18:26:27.477Z,3.42
2023-03-06T18:29:01.283Z,3.41
2023-03-06T18:31:34.026Z,3.35
2023-03-06T18:34:05.446Z,3.29
2023-03-06T18:36:33.639Z,3.24
2023-03-06T18:39:03.505Z,3.20
2023-03-06T18:41:31.245Z,3.12
2023-03-06T18:43:59.768Z,3.08
2023-03-06T18:46:31.272Z,3.05
2023-03-06T18:48:57.952Z,3.03
2023-03-06T18:51:24.763Z,2.99
2023-03-06T18:53:51.407Z,2.98
2023-03-06T18:56:20.805Z,2.97
2023-03-06T18:58:48.270Z,2.94
2023-03-06T19:01:15.008Z,2.92
2023-03-06T19:03:41.482Z,2.89
2023-03-06T19:06:10.766Z,2.87
2023-03-06T19:08:38.437Z,2.84
2023-03-06T19:11:11.089Z,2.81
2023-03-06T19:13:38.160Z,2.79
2023-03-06T19:16:05.637Z,2.76
2023-03-06T19:18:32.334Z,2.74
2023-03-06T19:21:14.314Z,2.72
2023-03-06T19:23:41.394Z,2.73
2023-03-06T19:26:08.726Z,2.72
2023-03-06T19:28:37.914Z,2.70
2023-03-06T19:31:09.858Z,2.69
2023-03-06T19:33:39.119Z,2.66
2023-03-06T19:36:07.311Z,2.61
2023-03-06T19:38:34.025Z,2.58
2023-03-06T19:41:00.998Z,2.56
2023-03-06T19:43:28.810Z,2.52
2023-03-06T19:45:56.451Z,2.49
2023-03-06T19:48:23.857Z,2.49
2023-03-06T19:50:50.275Z,2.49
2023-03-06T19:53:16.808Z,2.47
2023-03-06T19:55:43.418Z,2.45
2023-03-06T19:58:11.072Z,2.46
2023-03-06T20:00:37.962Z,2.46
2023-03-06T20:03:04.534Z,2.45
2023-03-06T20:05:31.086Z,2.47
2023-03-06T20:07:57.625Z,2.48
2023-03-06T20:10:24.044Z,2.50
2023-03-06T20:12:50.497Z,2.51
2023-03-06T20:15:18.995Z,2.53
2023-03-06T20:17:45.423Z,2.56
2023-03-06T20:20:12.603Z,2.59
2023-03-06T20:22:39.089Z,2.58
2023-03-06T20:25:05.878Z,2.61
2023-03-06T20:27:32.275Z,2.64
2023-03-06T20:29:58.711Z,2.69
2023-03-06T20:32:25.350Z,2.74
2023-03-06T20:34:51.748Z,2.78
2023-03-06T20:37:18.309Z,2.82
2023-03-06T20:39:44.890Z,2.83
2023-03-06T20:42:11.437Z,2.86
2023-03-06T20:44:38.030Z,2.89
2023-03-06T20:47:04.571Z,2.91
2023-03-06T20:49:31.143Z,2.94
2023-03-06T20:51:57.658Z,2.96
2023-03-06T20:54:24.178Z,3.00
2023-03-06T20:56:50.685Z,3.03
2023-03-06T20:59:17.342Z,3.04
2023-03-06T21:01:45.442Z,3.08
2023-03-06T21:04:16.037Z,3.11
2023-03-06T21:06:46.357Z,3.12
2023-03-06T21:09:15.762Z,3.14
2023-03-06T21:11:42.242Z,3.17
2023-03-06T21:14:08.859Z,3.22
2023-03-06T21:16:36.023Z,3.26
2023-03-06T21:19:02.658Z,3.30
2023-03-06T21:21:32.844Z,3.33
2023-03-06T21:24:00.253Z,3.35
2023-03-06T21:26:30.045Z,3.37
2023-03-06T21:29:00.633Z,3.39
2023-03-06T21:31:28.361Z,3.42
2023-03-06T21:33:55.501Z,3.43
2023-03-06T21:36:22.534Z,3.46
2023-03-06T21:38:51.591Z,3.50
2023-03-06T21:41:26.882Z,3.51
2023-03-06T21:43:58.317Z,3.56
2023-03-06T21:46:25.367Z,3.60
2023-03-06T21:48:52.136Z,3.62
2023-03-06T21:51:20.153Z,3.63
2023-03-06T21:53:48.403Z,3.65
2023-03-06T21:56:17.556Z,3.68
2023-03-06T21:58:45.011Z,3.72
2023-03-06T22:01:13.744Z,3.73
2023-03-06T22:03:40.291Z,3.77
2023-03-06T22:06:12.328Z,3.82
2023-03-06T22:08:39.697Z,3.86
2023-03-06T22:11:08.583Z,3.90
2023-03-06T22:13:35.467Z,3.95
2023-03-06T22:16:02.214Z,4.00
2023-03-06T22:18:29.831Z,4.02
2023-03-06T22:20:56.434Z,4.04
2023-03-06T22:23:22.944Z,4.03
2023-03-06T22:25:49.465Z,4.04
2023-03-06T22:28:18.292Z,4.02
2023-03-06T22:30:46.018Z,4.01
2023-03-06T22:33:12.540Z,4.01
2023-03-06T22:35:39.060Z,3.99
2023-03-06T22:38:05.571Z,3.98
2023-03-06T22:40:33.325Z,3.97
2023-03-06T22:42:59.846Z,3.95
2023-03-06T22:45:26.999Z,3.94
2023-03-06T22:47:57.091Z,3.94
2023-03-06T22:50:28.879Z,3.91
2023-03-06T22:52:55.282Z,3.86
2023-03-06T22:55:21.706Z,3.86
2023-03-06T22:57:48.147Z,3.83
2023-03-06T23:00:14.938Z,3.81
2023-03-06T23:02:41.490Z,3.79
2023-03-06T23:05:08.195Z,3.77
2023-03-06T23:07:34.612Z,3.76
2023-03-06T23:10:01.106Z,3.76
2023-03-06T23:12:45.855Z,3.76
2023-03-06T23:15:31.204Z,3.76
2023-03-06T23:18:16.355Z,3.72
2023-03-06T23:21:09.370Z,3.69
2023-03-06T23:23:54.956Z,3.66
2023-03-06T23:26:24.873Z,3.65
2023-03-06T23:28:51.734Z,3.64
2023-03-06T23:31:24.446Z,3.65
2023-03-06T23:33:51.022Z,3.64
2023-03-06T23:36:18.537Z,3.66
2023-03-06T23:38:45.301Z,3.68
2023-03-06T23:41:14.865Z,3.69
2023-03-06T23:43:41.583Z,3.68
2023-03-06T23:46:08.613Z,3.72
2023-03-06T23:48:36.827Z,3.76
2023-03-06T23:51:14.367Z,3.80
2023-03-06T23:53:40.913Z,3.83
2023-03-06T23:56:07.970Z,3.85
2023-03-06T23:58:35.160Z,3.90
